sensor_id;sensor_type;location;lat;lon;timestamp;temperature;humidity
22212;DHT22;11275;52.488;13.462;2022-10-31T00:00:54;13.90;99.90
22212;DHT22;11275;52.488;13.462;2022-10-31T00:03:20;13.90;99.90
22212;DHT22;11275;52.488;13.462;2022-10-31T00:05:48;13.80;99.90
22212;DHT22;11275;52.488;13.462;2022-10-31T00:08:16;13.80;99.90
22212;DHT22;11275;52.488;13.462;2022-10-31T00:10:43;13.90;99.90
22212;DHT22;11275;52.488;13.462;2022-10-31T00:13:10;13.80;99.90
22212;DHT22;11275;52.488;13.462;2022-10-31T00:15:37;13.80;99.90
22212;DHT22;11275;52.488;13.462;2022-10-31T00:18:04;13.70;99.90
22212;DHT22;11275;52.488;13.462;2022-10-31T00:20:30;13.60;99.90
22212;DHT22;11275;52.488;13.462;2022-10-31T00:23:00;13.60;99.90
22212;DHT22;11275;52.488;13.462;2022-10-31T00:25:28;13.60;99.90
22212;DHT22;11275;52.488;13.462;2022-10-31T00:27:54;13.60;99.90
22212;DHT22;11275;52.488;13.462;2022-10-31T00:30:20;13.60;99.90
22212;DHT22;11275;52.488;13.462;2022-10-31T00:32:45;13.60;99.90
22212;DHT22;11275;52.488;13.462;2022-10-31T00:35:14;13.60;99.90
22212;DHT22;11275;52.488;13.462;2022-10-31T00:37:40;13.60;99.90
22212;DHT22;11275;52.488;13.462;2022-10-31T00:40:06;13.60;99.90
22212;DHT22;11275;52.488;13.462;2022-10-31T00:42:34;13.50;99.90
22212;DHT22;11275;52.488;13.462;2022-10-31T00:44:59;13.50;99.90
22212;DHT22;11275;52.488;13.462;2022-10-31T00:47:25;13.60;99.90
22212;DHT22;11275;52.488;13.462;2022-10-31T00:49:51;13.50;99.90
22212;DHT22;11275;52.488;13.462;2022-10-31T00:52:16;13.50;99.90
22212;DHT22;11275;52.488;13.462;2022-10-31T00:54:42;13.50;99.90
22212;DHT22;11275;52.488;13.462;2022-10-31T00:57:07;13.50;99.90
22212;DHT22;11275;52.488;13.462;2022-10-31T00:59:33;13.50;99.90
22212;DHT22;11275;52.488;13.462;2022-10-31T01:01:58;13.40;99.90
22212;DHT22;11275;52.488;13.462;2022-10-31T01:04:24;13.40;99.90
22212;DHT22;11275;52.488;13.462;2022-10-31T01:06:49;13.50;99.90
22212;DHT22;11275;52.488;13.462;2022-10-31T01:09:15;13.50;99.90
22212;DHT22;11275;52.488;13.462;2022-10-31T01:11:40;13.40;99.90
22212;DHT22;11275;52.488;13.462;2022-10-31T01:14:06;13.40;99.90
22212;DHT22;11275;52.488;13.462;2022-10-31T01:16:31;13.40;99.90
22212;DHT22;11275;52.488;13.462;2022-10-31T01:18:57;13.40;99.90
22212;DHT22;11275;52.488;13.462;2022-10-31T01:21:25;13.40;99.90
22212;DHT22;11275;52.488;13.462;2022-10-31T01:23:53;13.30;99.90
22212;DHT22;11275;52.488;13.462;2022-10-31T01:26:24;13.30;99.90
22212;DHT22;11275;52.488;13.462;2022-10-31T01:28:53;13.40;99.90
22212;DHT22;11275;52.488;13.462;2022-10-31T01:31:21;13.30;99.90
22212;DHT22;11275;52.488;13.462;2022-10-31T01:33:47;13.30;99.90
22212;DHT22;11275;52.488;13.462;2022-10-31T01:36:23;13.30;99.90
22212;DHT22;11275;52.488;13.462;2022-10-31T01:38:49;13.30;99.90
22212;DHT22;11275;52.488;13.462;2022-10-31T01:41:18;13.20;99.90
22212;DHT22;11275;52.488;13.462;2022-10-31T01:43:48;13.20;99.90
22212;DHT22;11275;52.488;13.462;2022-10-31T01:46:17;13.20;99.90
22212;DHT22;11275;52.488;13.462;2022-10-31T01:48:43;13.20;99.90
22212;DHT22;11275;52.488;13.462;2022-10-31T01:51:10;13.20;99.90
22212;DHT22;11275;52.488;13.462;2022-10-31T01:53:38;13.20;99.90
22212;DHT22;11275;52.488;13.462;2022-10-31T01:56:04;13.30;99.90
22212;DHT22;11275;52.488;13.462;2022-10-31T01:58:31;13.20;99.90
22212;DHT22;11275;52.488;13.462;2022-10-31T02:01:00;13.20;99.90
22212;DHT22;11275;52.488;13.462;2022-10-31T02:03:27;13.20;99.90
22212;DHT22;11275;52.488;13.462;2022-10-31T02:05:54;13.30;99.90
22212;DHT22;11275;52.488;13.462;2022-10-31T02:08:29;13.30;99.90
22212;DHT22;11275;52.488;13.462;2022-10-31T02:10:57;13.40;99.90
22212;DHT22;11275;52.488;13.462;2022-10-31T02:13:24;13.30;99.90
22212;DHT22;11275;52.488;13.462;2022-10-31T02:15:52;13.40;99.90
22212;DHT22;11275;52.488;13.462;2022-10-31T02:18:19;13.40;99.90
22212;DHT22;11275;52.488;13.462;2022-10-31T02:21:14;13.40;99.90
22212;DHT22;11275;52.488;13.462;2022-10-31T02:24:44;13.40;99.90
22212;DHT22;11275;52.488;13.462;2022-10-31T02:26:49;13.30;99.90
22212;DHT22;11275;52.488;13.462;2022-10-31T02:34:48;13.30;99.90
22212;DHT22;11275;52.488;13.462;2022-10-31T02:40:24;13.30;99.90
22212;DHT22;11275;52.488;13.462;2022-10-31T02:43:09;13.30;99.90
22212;DHT22;11275;52.488;13.462;2022-10-31T02:48:18;13.30;99.90
22212;DHT22;11275;52.488;13.462;2022-10-31T02:50:55;13.30;99.90
22212;DHT22;11275;52.488;13.462;2022-10-31T02:53:22;13.30;99.90
22212;DHT22;11275;52.488;13.462;2022-10-31T02:56:00;13.30;99.90
22212;DHT22;11275;52.488;13.462;2022-10-31T02:58:30;13.30;99.90
22212;DHT22;11275;52.488;13.462;2022-10-31T03:09:27;13.40;99.90
22212;DHT22;11275;52.488;13.462;2022-10-31T03:14:56;13.40;99.90
22212;DHT22;11275;52.488;13.462;2022-10-31T03:17:35;13.40;99.90
22212;DHT22;11275;52.488;13.462;2022-10-31T03:20:03;13.40;99.90
22212;DHT22;11275;52.488;13.462;2022-10-31T03:22:32;13.30;99.90
22212;DHT22;11275;52.488;13.462;2022-10-31T03:25:01;13.30;99.90
22212;DHT22;11275;52.488;13.462;2022-10-31T03:27:29;13.40;99.90
22212;DHT22;11275;52.488;13.462;2022-10-31T03:29:58;13.40;99.90
22212;DHT22;11275;52.488;13.462;2022-10-31T03:32:29;13.40;99.90
22212;DHT22;11275;52.488;13.462;2022-10-31T03:34:58;13.50;99.90
22212;DHT22;11275;52.488;13.462;2022-10-31T03:37:27;13.40;99.90
22212;DHT22;11275;52.488;13.462;2022-10-31T03:39:57;13.40;99.90
22212;DHT22;11275;52.488;13.462;2022-10-31T03:42:25;13.40;99.90
22212;DHT22;11275;52.488;13.462;2022-10-31T03:45:01;13.40;99.90
22212;DHT22;11275;52.488;13.462;2022-10-31T03:47:28;13.40;99.90
22212;DHT22;11275;52.488;13.462;2022-10-31T03:49:54;13.50;99.90
22212;DHT22;11275;52.488;13.462;2022-10-31T03:52:38;13.40;99.90
22212;DHT22;11275;52.488;13.462;2022-10-31T03:55:27;13.50;99.90
22212;DHT22;11275;52.488;13.462;2022-10-31T03:58:07;13.50;99.90
22212;DHT22;11275;52.488;13.462;2022-10-31T04:00:34;13.50;99.90
22212;DHT22;11275;52.488;13.462;2022-10-31T04:03:05;13.50;99.90
22212;DHT22;11275;52.488;13.462;2022-10-31T04:05:32;13.50;99.90
22212;DHT22;11275;52.488;13.462;2022-10-31T04:07:59;13.50;99.90
22212;DHT22;11275;52.488;13.462;2022-10-31T04:10:27;13.50;99.90
22212;DHT22;11275;52.488;13.462;2022-10-31T04:13:02;13.50;99.90
22212;DHT22;11275;52.488;13.462;2022-10-31T04:15:29;13.50;99.90
22212;DHT22;11275;52.488;13.462;2022-10-31T04:17:58;13.50;99.90
22212;DHT22;11275;52.488;13.462;2022-10-31T04:20:33;13.50;99.90
22212;DHT22;11275;52.488;13.462;2022-10-31T04:22:59;13.50;99.90
22212;DHT22;11275;52.488;13.462;2022-10-31T04:25:25;13.50;99.90
22212;DHT22;11275;52.488;13.462;2022-10-31T04:27:51;13.50;99.90
22212;DHT22;11275;52.488;13.462;2022-10-31T04:30:16;13.50;99.90
22212;DHT22;11275;52.488;13.462;2022-10-31T04:32:42;13.50;99.90
22212;DHT22;11275;52.488;13.462;2022-10-31T04:35:07;13.50;99.90
22212;DHT22;11275;52.488;13.462;2022-10-31T04:37:33;13.50;99.90
22212;DHT22;11275;52.488;13.462;2022-10-31T04:39:59;13.40;99.90
22212;DHT22;11275;52.488;13.462;2022-10-31T04:42:24;13.40;99.90
22212;DHT22;11275;52.488;13.462;2022-10-31T04:44:50;13.50;99.90
22212;DHT22;11275;52.488;13.462;2022-10-31T04:47:15;13.50;99.90
22212;DHT22;11275;52.488;13.462;2022-10-31T04:49:41;13.50;99.90
22212;DHT22;11275;52.488;13.462;2022-10-31T04:52:06;13.50;99.90
22212;DHT22;11275;52.488;13.462;2022-10-31T04:54:33;13.50;99.90
22212;DHT22;11275;52.488;13.462;2022-10-31T04:56:59;13.50;99.90
22212;DHT22;11275;52.488;13.462;2022-10-31T04:59:24;13.50;99.90
22212;DHT22;11275;52.488;13.462;2022-10-31T05:01:51;13.50;99.90
22212;DHT22;11275;52.488;13.462;2022-10-31T05:04:16;13.40;99.90
22212;DHT22;11275;52.488;13.462;2022-10-31T05:06:42;13.40;99.90
22212;DHT22;11275;52.488;13.462;2022-10-31T05:09:07;13.40;99.90
22212;DHT22;11275;52.488;13.462;2022-10-31T05:11:33;13.40;99.90
22212;DHT22;11275;52.488;13.462;2022-10-31T05:13:58;13.40;99.90
22212;DHT22;11275;52.488;13.462;2022-10-31T05:16:24;13.40;99.90
22212;DHT22;11275;52.488;13.462;2022-10-31T05:18:49;13.40;99.90
22212;DHT22;11275;52.488;13.462;2022-10-31T05:21:15;13.40;99.90
22212;DHT22;11275;52.488;13.462;2022-10-31T05:23:40;13.40;99.90
22212;DHT22;11275;52.488;13.462;2022-10-31T05:26:06;13.30;99.90
22212;DHT22;11275;52.488;13.462;2022-10-31T05:28:31;13.30;99.90
22212;DHT22;11275;52.488;13.462;2022-10-31T05:30:57;13.40;99.90
22212;DHT22;11275;52.488;13.462;2022-10-31T05:33:23;13.40;99.90
22212;DHT22;11275;52.488;13.462;2022-10-31T05:35:48;13.40;99.90
22212;DHT22;11275;52.488;13.462;2022-10-31T05:38:14;13.40;99.90
22212;DHT22;11275;52.488;13.462;2022-10-31T05:40:39;13.30;99.90
22212;DHT22;11275;52.488;13.462;2022-10-31T05:43:05;13.30;99.90
22212;DHT22;11275;52.488;13.462;2022-10-31T05:45:30;13.40;99.90
22212;DHT22;11275;52.488;13.462;2022-10-31T05:47:58;13.30;99.90
22212;DHT22;11275;52.488;13.462;2022-10-31T05:50:25;13.30;99.90
22212;DHT22;11275;52.488;13.462;2022-10-31T05:53:02;13.30;99.90
22212;DHT22;11275;52.488;13.462;2022-10-31T05:55:29;13.30;99.90
22212;DHT22;11275;52.488;13.462;2022-10-31T05:57:55;13.30;99.90
22212;DHT22;11275;52.488;13.462;2022-10-31T06:00:21;13.20;99.90
22212;DHT22;11275;52.488;13.462;2022-10-31T06:02:48;13.20;99.90
22212;DHT22;11275;52.488;13.462;2022-10-31T06:05:14;13.20;99.90
22212;DHT22;11275;52.488;13.462;2022-10-31T06:07:39;13.20;99.90
22212;DHT22;11275;52.488;13.462;2022-10-31T06:10:07;13.20;99.90
22212;DHT22;11275;52.488;13.462;2022-10-31T06:12:33;13.20;99.90
22212;DHT22;11275;52.488;13.462;2022-10-31T06:15:06;13.20;99.90
22212;DHT22;11275;52.488;13.462;2022-10-31T06:17:33;13.20;99.90
22212;DHT22;11275;52.488;13.462;2022-10-31T06:20:00;13.20;99.90
22212;DHT22;11275;52.488;13.462;2022-10-31T06:22:26;13.20;99.90
22212;DHT22;11275;52.488;13.462;2022-10-31T06:25:04;13.30;99.90
22212;DHT22;11275;52.488;13.462;2022-10-31T06:27:29;13.30;99.90
22212;DHT22;11275;52.488;13.462;2022-10-31T06:30:04;13.30;99.90
22212;DHT22;11275;52.488;13.462;2022-10-31T06:32:30;13.20;99.90
22212;DHT22;11275;52.488;13.462;2022-10-31T06:34:56;13.30;99.90
22212;DHT22;11275;52.488;13.462;2022-10-31T06:37:21;13.30;99.90
22212;DHT22;11275;52.488;13.462;2022-10-31T06:39:53;13.30;99.90
22212;DHT22;11275;52.488;13.462;2022-10-31T08:08:32;13.50;99.90
22212;DHT22;11275;52.488;13.462;2022-10-31T08:10:58;13.50;99.90
22212;DHT22;11275;52.488;13.462;2022-10-31T08:13:27;13.70;99.90
22212;DHT22;11275;52.488;13.462;2022-10-31T08:15:52;13.80;99.90
22212;DHT22;11275;52.488;13.462;2022-10-31T08:18:19;14.00;99.90
22212;DHT22;11275;52.488;13.462;2022-10-31T08:20:44;14.20;99.90
22212;DHT22;11275;52.488;13.462;2022-10-31T08:23:11;14.30;99.90
22212;DHT22;11275;52.488;13.462;2022-10-31T08:25:37;14.50;99.90
22212;DHT22;11275;52.488;13.462;2022-10-31T08:28:03;14.60;99.90
22212;DHT22;11275;52.488;13.462;2022-10-31T08:30:31;14.70;99.90
22212;DHT22;11275;52.488;13.462;2022-10-31T08:33:05;14.80;99.90
22212;DHT22;11275;52.488;13.462;2022-10-31T08:35:32;14.80;99.90
22212;DHT22;11275;52.488;13.462;2022-10-31T08:37:58;14.90;99.90
22212;DHT22;11275;52.488;13.462;2022-10-31T08:40:25;14.90;99.90
22212;DHT22;11275;52.488;13.462;2022-10-31T08:43:10;14.90;99.90
22212;DHT22;11275;52.488;13.462;2022-10-31T08:45:36;15.00;99.90
22212;DHT22;11275;52.488;13.462;2022-10-31T08:48:04;15.00;99.90
22212;DHT22;11275;52.488;13.462;2022-10-31T08:50:32;14.90;99.90
22212;DHT22;11275;52.488;13.462;2022-10-31T08:53:13;15.00;99.90
22212;DHT22;11275;52.488;13.462;2022-10-31T08:55:39;15.00;99.90
22212;DHT22;11275;52.488;13.462;2022-10-31T08:58:07;15.00;99.90
22212;DHT22;11275;52.488;13.462;2022-10-31T09:00:34;15.10;99.90
22212;DHT22;11275;52.488;13.462;2022-10-31T09:03:03;15.20;99.90
22212;DHT22;11275;52.488;13.462;2022-10-31T09:05:29;15.20;99.90
22212;DHT22;11275;52.488;13.462;2022-10-31T09:07:58;15.20;99.90
22212;DHT22;11275;52.488;13.462;2022-10-31T09:10:25;15.20;99.90
22212;DHT22;11275;52.488;13.462;2022-10-31T09:13:21;15.30;99.90
22212;DHT22;11275;52.488;13.462;2022-10-31T09:15:48;15.30;99.90
22212;DHT22;11275;52.488;13.462;2022-10-31T09:18:16;15.30;99.90
22212;DHT22;11275;52.488;13.462;2022-10-31T09:20:43;15.40;99.90
22212;DHT22;11275;52.488;13.462;2022-10-31T09:23:14;15.40;99.90
22212;DHT22;11275;52.488;13.462;2022-10-31T09:25:40;15.30;99.90
22212;DHT22;11275;52.488;13.462;2022-10-31T09:28:08;15.30;99.90
22212;DHT22;11275;52.488;13.462;2022-10-31T09:30:35;15.40;99.90
22212;DHT22;11275;52.488;13.462;2022-10-31T09:33:03;15.40;99.90
22212;DHT22;11275;52.488;13.462;2022-10-31T09:35:29;15.50;99.90
22212;DHT22;11275;52.488;13.462;2022-10-31T09:38:02;15.50;99.90
22212;DHT22;11275;52.488;13.462;2022-10-31T09:40:34;15.50;99.90
22212;DHT22;11275;52.488;13.462;2022-10-31T09:43:07;15.60;99.90
22212;DHT22;11275;52.488;13.462;2022-10-31T09:48:36;15.70;99.90
22212;DHT22;11275;52.488;13.462;2022-10-31T09:51:16;15.70;99.90
22212;DHT22;11275;52.488;13.462;2022-10-31T09:56:31;15.80;99.90
22212;DHT22;11275;52.488;13.462;2022-10-31T09:58:59;15.80;99.90
22212;DHT22;11275;52.488;13.462;2022-10-31T10:01:40;15.80;99.90
22212;DHT22;11275;52.488;13.462;2022-10-31T10:06:54;15.70;99.90
22212;DHT22;11275;52.488;13.462;2022-10-31T10:09:25;15.70;99.90
22212;DHT22;11275;52.488;13.462;2022-10-31T10:15:24;15.80;99.90
22212;DHT22;11275;52.488;13.462;2022-10-31T10:20:42;15.90;99.90
22212;DHT22;11275;52.488;13.462;2022-10-31T10:23:36;16.00;99.90
22212;DHT22;11275;52.488;13.462;2022-10-31T10:26:21;16.00;99.90
22212;DHT22;11275;52.488;13.462;2022-10-31T10:28:54;16.00;99.90
22212;DHT22;11275;52.488;13.462;2022-10-31T10:31:26;16.10;99.90
22212;DHT22;11275;52.488;13.462;2022-10-31T10:34:06;16.00;99.90
22212;DHT22;11275;52.488;13.462;2022-10-31T10:36:34;16.00;99.90
22212;DHT22;11275;52.488;13.462;2022-10-31T10:41:38;16.00;99.90
22212;DHT22;11275;52.488;13.462;2022-10-31T10:44:09;16.00;99.90
22212;DHT22;11275;52.488;13.462;2022-10-31T10:46:51;16.00;99.90
22212;DHT22;11275;52.488;13.462;2022-10-31T10:49:49;16.10;99.90
22212;DHT22;11275;52.488;13.462;2022-10-31T10:52:32;16.20;99.90
22212;DHT22;11275;52.488;13.462;2022-10-31T11:00:24;16.30;99.90
22212;DHT22;11275;52.488;13.462;2022-10-31T11:02:51;16.40;99.90
22212;DHT22;11275;52.488;13.462;2022-10-31T11:05:52;16.40;99.90
22212;DHT22;11275;52.488;13.462;2022-10-31T11:08:30;16.50;99.90
22212;DHT22;11275;52.488;13.462;2022-10-31T11:14:06;16.50;99.90
22212;DHT22;11275;52.488;13.462;2022-10-31T11:16:42;16.50;99.90
22212;DHT22;11275;52.488;13.462;2022-10-31T11:19:14;16.50;99.90
22212;DHT22;11275;52.488;13.462;2022-10-31T11:21:42;16.60;99.90
22212;DHT22;11275;52.488;13.462;2022-10-31T11:26:37;16.60;99.90
22212;DHT22;11275;52.488;13.462;2022-10-31T11:29:04;16.60;99.90
22212;DHT22;11275;52.488;13.462;2022-10-31T11:31:32;16.60;99.90
22212;DHT22;11275;52.488;13.462;2022-10-31T11:34:05;16.60;99.90
22212;DHT22;11275;52.488;13.462;2022-10-31T11:36:39;16.60;99.90
22212;DHT22;11275;52.488;13.462;2022-10-31T11:39:24;16.60;99.90
22212;DHT22;11275;52.488;13.462;2022-10-31T11:41:52;16.70;99.90
22212;DHT22;11275;52.488;13.462;2022-10-31T11:44:25;16.60;99.90
22212;DHT22;11275;52.488;13.462;2022-10-31T11:46:59;16.70;99.90
22212;DHT22;11275;52.488;13.462;2022-10-31T11:52:12;16.80;99.90
22212;DHT22;11275;52.488;13.462;2022-10-31T11:54:46;16.90;99.90
22212;DHT22;11275;52.488;13.462;2022-10-31T11:57:49;16.90;99.90
22212;DHT22;11275;52.488;13.462;2022-10-31T12:00:36;17.00;99.90
22212;DHT22;11275;52.488;13.462;2022-10-31T12:06:33;17.10;99.90
22212;DHT22;11275;52.488;13.462;2022-10-31T12:08:59;17.10;99.90
22212;DHT22;11275;52.488;13.462;2022-10-31T12:14:32;17.30;99.90
22212;DHT22;11275;52.488;13.462;2022-10-31T12:20:23;17.30;99.90
22212;DHT22;11275;52.488;13.462;2022-10-31T12:23:18;17.30;99.90
22212;DHT22;11275;52.488;13.462;2022-10-31T12:31:35;17.50;99.90
22212;DHT22;11275;52.488;13.462;2022-10-31T12:39:44;17.60;99.90
22212;DHT22;11275;52.488;13.462;2022-10-31T12:58:47;17.80;99.90
22212;DHT22;11275;52.488;13.462;2022-10-31T13:01:35;17.80;99.90
22212;DHT22;11275;52.488;13.462;2022-10-31T13:06:40;17.90;99.90
22212;DHT22;11275;52.488;13.462;2022-10-31T13:09:11;17.90;99.90
22212;DHT22;11275;52.488;13.462;2022-10-31T13:11:53;17.90;99.90
22212;DHT22;11275;52.488;13.462;2022-10-31T13:14:26;17.90;99.90
22212;DHT22;11275;52.488;13.462;2022-10-31T13:16:54;17.90;99.90
22212;DHT22;11275;52.488;13.462;2022-10-31T13:19:27;18.00;99.90
22212;DHT22;11275;52.488;13.462;2022-10-31T13:24:59;18.00;99.90
22212;DHT22;11275;52.488;13.462;2022-10-31T13:27:33;18.00;99.90
22212;DHT22;11275;52.488;13.462;2022-10-31T13:30:15;18.00;99.90
22212;DHT22;11275;52.488;13.462;2022-10-31T13:33:12;18.00;99.90
22212;DHT22;11275;52.488;13.462;2022-10-31T13:38:36;18.00;99.90
22212;DHT22;11275;52.488;13.462;2022-10-31T13:44:24;18.10;99.90
22212;DHT22;11275;52.488;13.462;2022-10-31T13:46:52;18.10;99.90
22212;DHT22;11275;52.488;13.462;2022-10-31T13:49:23;18.10;99.90
22212;DHT22;11275;52.488;13.462;2022-10-31T13:51:49;18.10;99.90
22212;DHT22;11275;52.488;13.462;2022-10-31T13:54:32;18.10;99.90
22212;DHT22;11275;52.488;13.462;2022-10-31T13:56:58;18.10;99.90
22212;DHT22;11275;52.488;13.462;2022-10-31T13:59:26;18.00;99.90
22212;DHT22;11275;52.488;13.462;2022-10-31T14:02:16;18.10;99.90
22212;DHT22;11275;52.488;13.462;2022-10-31T14:04:51;18.00;99.90
22212;DHT22;11275;52.488;13.462;2022-10-31T14:07:20;18.00;99.90
22212;DHT22;11275;52.488;13.462;2022-10-31T14:10:24;18.00;99.90
22212;DHT22;11275;52.488;13.462;2022-10-31T14:12:51;18.00;99.90
22212;DHT22;11275;52.488;13.462;2022-10-31T14:20:36;18.00;99.90
22212;DHT22;11275;52.488;13.462;2022-10-31T14:23:25;17.90;99.90
22212;DHT22;11275;52.488;13.462;2022-10-31T14:31:51;17.80;99.90
22212;DHT22;11275;52.488;13.462;2022-10-31T14:34:33;17.80;99.90
22212;DHT22;11275;52.488;13.462;2022-10-31T14:42:41;17.70;99.90
22212;DHT22;11275;52.488;13.462;2022-10-31T14:50:51;17.60;99.90
22212;DHT22;11275;52.488;13.462;2022-10-31T14:53:22;17.60;99.90
22212;DHT22;11275;52.488;13.462;2022-10-31T14:55:50;17.60;99.90
22212;DHT22;11275;52.488;13.462;2022-10-31T14:58:38;17.50;99.90
22212;DHT22;11275;52.488;13.462;2022-10-31T15:01:05;17.60;99.90
22212;DHT22;11275;52.488;13.462;2022-10-31T15:03:40;17.50;99.90
22212;DHT22;11275;52.488;13.462;2022-10-31T15:06:12;17.60;99.90
22212;DHT22;11275;52.488;13.462;2022-10-31T15:08:45;17.50;99.90
22212;DHT22;11275;52.488;13.462;2022-10-31T15:13:52;17.50;99.90
22212;DHT22;11275;52.488;13.462;2022-10-31T15:16:33;17.50;99.90
22212;DHT22;11275;52.488;13.462;2022-10-31T15:19:03;17.40;99.90
22212;DHT22;11275;52.488;13.462;2022-10-31T15:21:30;17.40;99.90
22212;DHT22;11275;52.488;13.462;2022-10-31T15:23:57;17.40;99.90
22212;DHT22;11275;52.488;13.462;2022-10-31T15:26:33;17.40;99.90
22212;DHT22;11275;52.488;13.462;2022-10-31T15:29:17;17.40;99.90
22212;DHT22;11275;52.488;13.462;2022-10-31T15:32:20;17.40;99.90
22212;DHT22;11275;52.488;13.462;2022-10-31T15:34:46;17.30;99.90
22212;DHT22;11275;52.488;13.462;2022-10-31T15:37:16;17.30;99.90
22212;DHT22;11275;52.488;13.462;2022-10-31T15:39:43;17.30;99.90
22212;DHT22;11275;52.488;13.462;2022-10-31T15:42:22;17.20;99.90
22212;DHT22;11275;52.488;13.462;2022-10-31T15:47:35;17.10;99.90
22212;DHT22;11275;52.488;13.462;2022-10-31T15:50:02;17.10;99.90
22212;DHT22;11275;52.488;13.462;2022-10-31T15:52:41;17.10;99.90
22212;DHT22;11275;52.488;13.462;2022-10-31T15:57:45;17.00;99.90
22212;DHT22;11275;52.488;13.462;2022-10-31T16:00:40;17.00;99.90
22212;DHT22;11275;52.488;13.462;2022-10-31T16:05:52;16.90;99.90
22212;DHT22;11275;52.488;13.462;2022-10-31T16:16:27;16.90;99.90
22212;DHT22;11275;52.488;13.462;2022-10-31T16:18:55;16.90;99.90
22212;DHT22;11275;52.488;13.462;2022-10-31T16:21:28;16.80;99.90
22212;DHT22;11275;52.488;13.462;2022-10-31T16:24:00;16.70;99.90
22212;DHT22;11275;52.488;13.462;2022-10-31T16:26:26;16.70;99.90
22212;DHT22;11275;52.488;13.462;2022-10-31T16:28:54;16.70;99.90
22212;DHT22;11275;52.488;13.462;2022-10-31T16:31:46;16.70;99.90
22212;DHT22;11275;52.488;13.462;2022-10-31T16:34:19;16.70;99.90
22212;DHT22;11275;52.488;13.462;2022-10-31T16:36:45;16.60;99.90
22212;DHT22;11275;52.488;13.462;2022-10-31T16:39:14;16.60;99.90
22212;DHT22;11275;52.488;13.462;2022-10-31T16:41:45;16.60;99.90
22212;DHT22;11275;52.488;13.462;2022-10-31T16:44:24;16.60;99.90
22212;DHT22;11275;52.488;13.462;2022-10-31T16:47:14;16.60;99.90
22212;DHT22;11275;52.488;13.462;2022-10-31T16:49:44;16.50;99.90
22212;DHT22;11275;52.488;13.462;2022-10-31T16:52:11;16.40;99.90
22212;DHT22;11275;52.488;13.462;2022-10-31T16:54:39;16.40;99.90
22212;DHT22;11275;52.488;13.462;2022-10-31T16:57:05;16.30;99.90
22212;DHT22;11275;52.488;13.462;2022-10-31T16:59:32;16.30;99.90
22212;DHT22;11275;52.488;13.462;2022-10-31T17:02:01;16.30;99.90
22212;DHT22;11275;52.488;13.462;2022-10-31T17:04:28;16.30;99.90
22212;DHT22;11275;52.488;13.462;2022-10-31T17:06:54;16.30;99.90
22212;DHT22;11275;52.488;13.462;2022-10-31T17:09:19;16.20;99.90
22212;DHT22;11275;52.488;13.462;2022-10-31T17:11:47;16.10;99.90
22212;DHT22;11275;52.488;13.462;2022-10-31T17:14:15;16.10;99.90
22212;DHT22;11275;52.488;13.462;2022-10-31T17:16:41;16.10;99.90
22212;DHT22;11275;52.488;13.462;2022-10-31T17:19:10;16.10;99.90
22212;DHT22;11275;52.488;13.462;2022-10-31T17:21:36;16.10;99.90
22212;DHT22;11275;52.488;13.462;2022-10-31T17:24:02;16.10;99.90
22212;DHT22;11275;52.488;13.462;2022-10-31T17:26:28;16.10;99.90
22212;DHT22;11275;52.488;13.462;2022-10-31T17:28:53;16.00;99.90
22212;DHT22;11275;52.488;13.462;2022-10-31T17:31:27;16.00;99.90
22212;DHT22;11275;52.488;13.462;2022-10-31T17:33:56;16.00;99.90
22212;DHT22;11275;52.488;13.462;2022-10-31T17:36:23;16.00;99.90
22212;DHT22;11275;52.488;13.462;2022-10-31T17:38:48;15.90;99.90
22212;DHT22;11275;52.488;13.462;2022-10-31T17:41:15;15.90;99.90
22212;DHT22;11275;52.488;13.462;2022-10-31T17:43:40;15.90;99.90
22212;DHT22;11275;52.488;13.462;2022-10-31T17:46:06;15.90;99.90
22212;DHT22;11275;52.488;13.462;2022-10-31T17:48:34;15.90;99.90
22212;DHT22;11275;52.488;13.462;2022-10-31T17:51:01;15.80;99.90
22212;DHT22;11275;52.488;13.462;2022-10-31T17:53:29;15.80;99.90
22212;DHT22;11275;52.488;13.462;2022-10-31T17:56:02;15.70;99.90
22212;DHT22;11275;52.488;13.462;2022-10-31T17:58:29;15.70;99.90
22212;DHT22;11275;52.488;13.462;2022-10-31T18:00:55;15.70;99.90
22212;DHT22;11275;52.488;13.462;2022-10-31T18:03:21;15.70;99.90
22212;DHT22;11275;52.488;13.462;2022-10-31T18:05:55;15.70;99.90
22212;DHT22;11275;52.488;13.462;2022-10-31T18:08:29;15.70;99.90
22212;DHT22;11275;52.488;13.462;2022-10-31T18:10:58;15.70;99.90
22212;DHT22;11275;52.488;13.462;2022-10-31T18:13:29;15.60;99.90
22212;DHT22;11275;52.488;13.462;2022-10-31T18:15:54;15.70;99.90
22212;DHT22;11275;52.488;13.462;2022-10-31T18:18:20;15.60;99.90
22212;DHT22;11275;52.488;13.462;2022-10-31T18:20:48;15.60;99.90
22212;DHT22;11275;52.488;13.462;2022-10-31T18:23:14;15.60;99.90
22212;DHT22;11275;52.488;13.462;2022-10-31T18:25:39;15.60;99.90
22212;DHT22;11275;52.488;13.462;2022-10-31T18:28:07;15.60;99.90
22212;DHT22;11275;52.488;13.462;2022-10-31T18:30:33;15.60;99.90
22212;DHT22;11275;52.488;13.462;2022-10-31T18:33:06;15.50;99.90
22212;DHT22;11275;52.488;13.462;2022-10-31T18:35:35;15.50;99.90
22212;DHT22;11275;52.488;13.462;2022-10-31T18:38:01;15.50;99.90
22212;DHT22;11275;52.488;13.462;2022-10-31T18:40:27;15.50;99.90
22212;DHT22;11275;52.488;13.462;2022-10-31T18:42:52;15.40;99.90
22212;DHT22;11275;52.488;13.462;2022-10-31T18:45:18;15.40;99.90
22212;DHT22;11275;52.488;13.462;2022-10-31T18:47:43;15.40;99.90
22212;DHT22;11275;52.488;13.462;2022-10-31T18:50:10;15.30;99.90
22212;DHT22;11275;52.488;13.462;2022-10-31T18:52:35;15.20;99.90
22212;DHT22;11275;52.488;13.462;2022-10-31T18:55:01;15.20;99.90
22212;DHT22;11275;52.488;13.462;2022-10-31T18:57:27;15.20;99.90
22212;DHT22;11275;52.488;13.462;2022-10-31T18:59:52;15.30;99.90
22212;DHT22;11275;52.488;13.462;2022-10-31T19:02:18;15.30;99.90
22212;DHT22;11275;52.488;13.462;2022-10-31T19:04:43;15.30;99.90
22212;DHT22;11275;52.488;13.462;2022-10-31T19:07:09;15.30;99.90
22212;DHT22;11275;52.488;13.462;2022-10-31T19:09:35;15.30;99.90
22212;DHT22;11275;52.488;13.462;2022-10-31T19:12:00;15.30;99.90
22212;DHT22;11275;52.488;13.462;2022-10-31T19:14:26;15.30;99.90
22212;DHT22;11275;52.488;13.462;2022-10-31T19:16:52;15.20;99.90
22212;DHT22;11275;52.488;13.462;2022-10-31T19:19:17;15.20;99.90
22212;DHT22;11275;52.488;13.462;2022-10-31T19:21:45;15.10;99.90
22212;DHT22;11275;52.488;13.462;2022-10-31T19:24:11;15.10;99.90